sensor_id;sensor_type;location;lat;lon;timestamp;P1;P2;P0
46885;PMS5003;32622;48.202;11.326;2023-09-07T00:00:27;19;19;
46885;PMS5003;32622;48.202;11.326;2023-09-07T00:02:29;19;19;
46885;PMS5003;32622;48.202;11.326;2023-09-07T00:04:32;20;20;
46885;PMS5003;32622;48.202;11.326;2023-09-07T00:06:34;20;20;
46885;PMS5003;32622;48.202;11.326;2023-09-07T00:08:36;20;20;
46885;PMS5003;32622;48.202;11.326;2023-09-07T00:10:38;20;20;
46885;PMS5003;32622;48.202;11.326;2023-09-07T00:12:40;20;20;
46885;PMS5003;32622;48.202;11.326;2023-09-07T00:14:42;20;20;
46885;PMS5003;32622;48.202;11.326;2023-09-07T00:16:44;20;20;
46885;PMS5003;32622;48.202;11.326;2023-09-07T00:18:46;20;20;
46885;PMS5003;32622;48.202;11.326;2023-09-07T00:20:48;20;20;
46885;PMS5003;32622;48.202;11.326;2023-09-07T00:22:51;19;19;
46885;PMS5003;32622;48.202;11.326;2023-09-07T00:24:53;19;19;
46885;PMS5003;32622;48.202;11.326;2023-09-07T00:26:55;19;19;
46885;PMS5003;32622;48.202;11.326;2023-09-07T00:28:57;21;19;
46885;PMS5003;32622;48.202;11.326;2023-09-07T00:30:59;21;19;
46885;PMS5003;32622;48.202;11.326;2023-09-07T00:33:02;21;19;
46885;PMS5003;32622;48.202;11.326;2023-09-07T00:35:05;20;19;
46885;PMS5003;32622;48.202;11.326;2023-09-07T00:37:07;20;19;
46885;PMS5003;32622;48.202;11.326;2023-09-07T00:39:09;20;19;
46885;PMS5003;32622;48.202;11.326;2023-09-07T00:41:12;21;20;
46885;PMS5003;32622;48.202;11.326;2023-09-07T00:43:15;21;20;
46885;PMS5003;32622;48.202;11.326;2023-09-07T00:45:17;21;20;
46885;PMS5003;32622;48.202;11.326;2023-09-07T00:47:19;22;20;
46885;PMS5003;32622;48.202;11.326;2023-09-07T00:49:22;22;20;
46885;PMS5003;32622;48.202;11.326;2023-09-07T00:51:25;22;20;
46885;PMS5003;32622;48.202;11.326;2023-09-07T00:53:27;20;19;
46885;PMS5003;32622;48.202;11.326;2023-09-07T00:55:30;20;19;
46885;PMS5003;32622;48.202;11.326;2023-09-07T00:57:32;20;19;
46885;PMS5003;32622;48.202;11.326;2023-09-07T00:59:34;19;18;
46885;PMS5003;32622;48.202;11.326;2023-09-07T01:01:37;19;18;
46885;PMS5003;32622;48.202;11.326;2023-09-07T01:03:39;19;18;
46885;PMS5003;32622;48.202;11.326;2023-09-07T01:05:43;19;18;
46885;PMS5003;32622;48.202;11.326;2023-09-07T01:07:53;20;19;
46885;PMS5003;32622;48.202;11.326;2023-09-07T01:10:00;20;19;
46885;PMS5003;32622;48.202;11.326;2023-09-07T01:12:04;20;18;
46885;PMS5003;32622;48.202;11.326;2023-09-07T01:14:07;20;18;
46885;PMS5003;32622;48.202;11.326;2023-09-07T01:16:09;20;18;
46885;PMS5003;32622;48.202;11.326;2023-09-07T01:18:12;19;18;
46885;PMS5003;32622;48.202;11.326;2023-09-07T01:20:15;19;18;
46885;PMS5003;32622;48.202;11.326;2023-09-07T01:22:18;19;18;
46885;PMS5003;32622;48.202;11.326;2023-09-07T01:24:22;20;19;
46885;PMS5003;32622;48.202;11.326;2023-09-07T01:26:25;20;19;
46885;PMS5003;32622;48.202;11.326;2023-09-07T01:28:28;19;18;
46885;PMS5003;32622;48.202;11.326;2023-09-07T01:30:30;18;18;
46885;PMS5003;32622;48.202;11.326;2023-09-07T01:32:32;18;18;
46885;PMS5003;32622;48.202;11.326;2023-09-07T01:34:35;18;18;
46885;PMS5003;32622;48.202;11.326;2023-09-07T01:36:37;18;18;
46885;PMS5003;32622;48.202;11.326;2023-09-07T01:38:39;18;18;
46885;PMS5003;32622;48.202;11.326;2023-09-07T01:40:41;18;18;
46885;PMS5003;32622;48.202;11.326;2023-09-07T01:42:43;18;18;
46885;PMS5003;32622;48.202;11.326;2023-09-07T01:44:45;18;18;
46885;PMS5003;32622;48.202;11.326;2023-09-07T01:46:47;18;18;
46885;PMS5003;32622;48.202;11.326;2023-09-07T01:48:49;18;17;
46885;PMS5003;32622;48.202;11.326;2023-09-07T01:50:52;17;16;
46885;PMS5003;32622;48.202;11.326;2023-09-07T01:52:54;17;16;
46885;PMS5003;32622;48.202;11.326;2023-09-07T01:54:56;17;16;
46885;PMS5003;32622;48.202;11.326;2023-09-07T01:56:58;17;16;
46885;PMS5003;32622;48.202;11.326;2023-09-07T01:59:00;17;16;
46885;PMS5003;32622;48.202;11.326;2023-09-07T02:01:02;17;16;
46885;PMS5003;32622;48.202;11.326;2023-09-07T02:03:04;17;16;
46885;PMS5003;32622;48.202;11.326;2023-09-07T02:05:07;17;16;
46885;PMS5003;32622;48.202;11.326;2023-09-07T02:07:09;18;17;
46885;PMS5003;32622;48.202;11.326;2023-09-07T02:09:11;18;17;
46885;PMS5003;32622;48.202;11.326;2023-09-07T02:11:14;19;18;
46885;PMS5003;32622;48.202;11.326;2023-09-07T02:13:16;20;19;
46885;PMS5003;32622;48.202;11.326;2023-09-07T02:15:18;20;19;
46885;PMS5003;32622;48.202;11.326;2023-09-07T02:17:20;20;19;
46885;PMS5003;32622;48.202;11.326;2023-09-07T02:19:22;22;21;
46885;PMS5003;32622;48.202;11.326;2023-09-07T02:21:24;22;21;
46885;PMS5003;32622;48.202;11.326;2023-09-07T02:23:26;22;21;
46885;PMS5003;32622;48.202;11.326;2023-09-07T02:25:28;21;20;
46885;PMS5003;32622;48.202;11.326;2023-09-07T02:27:30;21;20;
46885;PMS5003;32622;48.202;11.326;2023-09-07T02:29:33;21;20;
46885;PMS5003;32622;48.202;11.326;2023-09-07T02:31:35;21;19;
46885;PMS5003;32622;48.202;11.326;2023-09-07T02:33:37;21;19;
46885;PMS5003;32622;48.202;11.326;2023-09-07T02:35:39;21;19;
46885;PMS5003;32622;48.202;11.326;2023-09-07T02:37:41;23;19;
46885;PMS5003;32622;48.202;11.326;2023-09-07T02:39:43;24;20;
46885;PMS5003;32622;48.202;11.326;2023-09-07T02:41:46;24;20;
46885;PMS5003;32622;48.202;11.326;2023-09-07T02:43:48;26;21;
46885;PMS5003;32622;48.202;11.326;2023-09-07T02:45:50;25;20;
46885;PMS5003;32622;48.202;11.326;2023-09-07T02:47:52;25;20;
46885;PMS5003;32622;48.202;11.326;2023-09-07T02:49:54;24;21;
46885;PMS5003;32622;48.202;11.326;2023-09-07T02:51:56;24;21;
46885;PMS5003;32622;48.202;11.326;2023-09-07T02:53:59;25;22;
46885;PMS5003;32622;48.202;11.326;2023-09-07T02:56:03;26;22;
46885;PMS5003;32622;48.202;11.326;2023-09-07T02:58:05;26;22;
46885;PMS5003;32622;48.202;11.326;2023-09-07T03:00:07;25;21;
46885;PMS5003;32622;48.202;11.326;2023-09-07T03:02:09;25;21;
46885;PMS5003;32622;48.202;11.326;2023-09-07T03:04:11;25;21;
46885;PMS5003;32622;48.202;11.326;2023-09-07T03:06:14;25;21;
46885;PMS5003;32622;48.202;11.326;2023-09-07T03:08:16;25;21;
46885;PMS5003;32622;48.202;11.326;2023-09-07T03:10:18;25;21;
46885;PMS5003;32622;48.202;11.326;2023-09-07T03:12:20;25;21;
46885;PMS5003;32622;48.202;11.326;2023-09-07T03:14:22;24;21;
46885;PMS5003;32622;48.202;11.326;2023-09-07T03:16:25;24;21;
46885;PMS5003;32622;48.202;11.326;2023-09-07T03:18:27;24;21;
46885;PMS5003;32622;48.202;11.326;2023-09-07T03:20:29;23;18;
46885;PMS5003;32622;48.202;11.326;2023-09-07T03:22:34;23;18;
46885;PMS5003;32622;48.202;11.326;2023-09-07T03:24:36;23;18;
46885;PMS5003;32622;48.202;11.326;2023-09-07T03:26:38;23;18;
46885;PMS5003;32622;48.202;11.326;2023-09-07T03:28:40;24;19;
46885;PMS5003;32622;48.202;11.326;2023-09-07T03:30:42;24;19;
46885;PMS5003;32622;48.202;11.326;2023-09-07T03:32:44;24;20;
46885;PMS5003;32622;48.202;11.326;2023-09-07T03:34:46;24;20;
46885;PMS5003;32622;48.202;11.326;2023-09-07T03:36:48;24;20;
46885;PMS5003;32622;48.202;11.326;2023-09-07T03:38:51;23;20;
46885;PMS5003;32622;48.202;11.326;2023-09-07T03:40:53;23;20;
46885;PMS5003;32622;48.202;11.326;2023-09-07T03:42:55;23;20;
46885;PMS5003;32622;48.202;11.326;2023-09-07T03:44:57;22;20;
46885;PMS5003;32622;48.202;11.326;2023-09-07T03:47:00;22;20;
46885;PMS5003;32622;48.202;11.326;2023-09-07T03:49:02;22;20;
46885;PMS5003;32622;48.202;11.326;2023-09-07T03:51:05;23;21;
46885;PMS5003;32622;48.202;11.326;2023-09-07T03:53:07;23;21;
46885;PMS5003;32622;48.202;11.326;2023-09-07T03:55:10;23;21;
46885;PMS5003;32622;48.202;11.326;2023-09-07T03:57:12;22;20;
46885;PMS5003;32622;48.202;11.326;2023-09-07T03:59:14;22;20;
46885;PMS5003;32622;48.202;11.326;2023-09-07T04:01:16;22;20;
46885;PMS5003;32622;48.202;11.326;2023-09-07T04:03:18;21;20;
46885;PMS5003;32622;48.202;11.326;2023-09-07T04:05:21;21;20;
46885;PMS5003;32622;48.202;11.326;2023-09-07T04:07:23;21;20;
46885;PMS5003;32622;48.202;11.326;2023-09-07T04:09:25;21;20;
46885;PMS5003;32622;48.202;11.326;2023-09-07T04:11:27;21;20;
46885;PMS5003;32622;48.202;11.326;2023-09-07T04:13:29;21;20;
46885;PMS5003;32622;48.202;11.326;2023-09-07T04:15:32;21;20;
46885;PMS5003;32622;48.202;11.326;2023-09-07T04:17:34;21;20;
46885;PMS5003;32622;48.202;11.326;2023-09-07T04:19:37;21;20;
46885;PMS5003;32622;48.202;11.326;2023-09-07T04:21:39;21;21;
46885;PMS5003;32622;48.202;11.326;2023-09-07T04:23:41;21;21;
46885;PMS5003;32622;48.202;11.326;2023-09-07T04:25:43;21;21;
46885;PMS5003;32622;48.202;11.326;2023-09-07T04:27:45;21;21;
46885;PMS5003;32622;48.202;11.326;2023-09-07T04:29:47;21;21;
46885;PMS5003;32622;48.202;11.326;2023-09-07T04:31:49;21;21;
46885;PMS5003;32622;48.202;11.326;2023-09-07T04:33:52;20;20;
46885;PMS5003;32622;48.202;11.326;2023-09-07T04:35:54;20;20;
46885;PMS5003;32622;48.202;11.326;2023-09-07T04:37:56;20;20;
46885;PMS5003;32622;48.202;11.326;2023-09-07T04:39:58;18;18;
46885;PMS5003;32622;48.202;11.326;2023-09-07T04:42:01;18;18;
46885;PMS5003;32622;48.202;11.326;2023-09-07T04:44:03;18;18;
46885;PMS5003;32622;48.202;11.326;2023-09-07T04:46:05;19;19;
46885;PMS5003;32622;48.202;11.326;2023-09-07T04:48:07;19;19;
46885;PMS5003;32622;48.202;11.326;2023-09-07T04:50:10;19;19;
46885;PMS5003;32622;48.202;11.326;2023-09-07T04:52:12;19;18;
46885;PMS5003;32622;48.202;11.326;2023-09-07T04:54:14;19;18;
46885;PMS5003;32622;48.202;11.326;2023-09-07T04:56:16;19;18;
46885;PMS5003;32622;48.202;11.326;2023-09-07T04:58:18;20;19;
46885;PMS5003;32622;48.202;11.326;2023-09-07T05:00:20;20;19;
46885;PMS5003;32622;48.202;11.326;2023-09-07T05:02:23;20;19;
46885;PMS5003;32622;48.202;11.326;2023-09-07T05:04:25;21;20;
46885;PMS5003;32622;48.202;11.326;2023-09-07T05:06:27;21;20;
46885;PMS5003;32622;48.202;11.326;2023-09-07T05:08:29;21;20;
46885;PMS5003;32622;48.202;11.326;2023-09-07T05:10:32;21;20;
46885;PMS5003;32622;48.202;11.326;2023-09-07T05:12:35;21;20;
46885;PMS5003;32622;48.202;11.326;2023-09-07T05:14:37;21;20;
46885;PMS5003;32622;48.202;11.326;2023-09-07T05:16:40;20;18;
46885;PMS5003;32622;48.202;11.326;2023-09-07T05:18:43;20;18;
46885;PMS5003;32622;48.202;11.326;2023-09-07T05:20:46;20;18;
46885;PMS5003;32622;48.202;11.326;2023-09-07T05:22:48;19;18;
46885;PMS5003;32622;48.202;11.326;2023-09-07T05:24:50;19;18;
46885;PMS5003;32622;48.202;11.326;2023-09-07T05:26:53;19;18;
46885;PMS5003;32622;48.202;11.326;2023-09-07T05:28:55;21;18;
46885;PMS5003;32622;48.202;11.326;2023-09-07T05:30:57;21;18;
46885;PMS5003;32622;48.202;11.326;2023-09-07T05:32:59;21;18;
46885;PMS5003;32622;48.202;11.326;2023-09-07T05:35:01;23;19;
46885;PMS5003;32622;48.202;11.326;2023-09-07T05:37:03;23;19;
46885;PMS5003;32622;48.202;11.326;2023-09-07T05:39:05;23;19;
46885;PMS5003;32622;48.202;11.326;2023-09-07T05:41:08;23;20;
46885;PMS5003;32622;48.202;11.326;2023-09-07T05:43:10;23;20;
46885;PMS5003;32622;48.202;11.326;2023-09-07T05:45:12;23;20;
46885;PMS5003;32622;48.202;11.326;2023-09-07T05:47:15;22;18;
46885;PMS5003;32622;48.202;11.326;2023-09-07T05:49:17;22;18;
46885;PMS5003;32622;48.202;11.326;2023-09-07T05:51:19;22;18;
46885;PMS5003;32622;48.202;11.326;2023-09-07T05:53:21;21;18;
46885;PMS5003;32622;48.202;11.326;2023-09-07T05:55:23;21;18;
46885;PMS5003;32622;48.202;11.326;2023-09-07T05:57:25;21;18;
46885;PMS5003;32622;48.202;11.326;2023-09-07T05:59:27;20;17;
46885;PMS5003;32622;48.202;11.326;2023-09-07T06:01:29;20;17;
46885;PMS5003;32622;48.202;11.326;2023-09-07T06:03:32;20;17;
46885;PMS5003;32622;48.202;11.326;2023-09-07T06:05:35;21;17;
46885;PMS5003;32622;48.202;11.326;2023-09-07T06:07:38;21;17;
46885;PMS5003;32622;48.202;11.326;2023-09-07T06:09:40;21;17;
46885;PMS5003;32622;48.202;11.326;2023-09-07T06:11:42;21;17;
46885;PMS5003;32622;48.202;11.326;2023-09-07T06:13:44;21;17;
46885;PMS5003;32622;48.202;11.326;2023-09-07T06:15:46;21;17;
46885;PMS5003;32622;48.202;11.326;2023-09-07T06:17:48;21;18;
46885;PMS5003;32622;48.202;11.326;2023-09-07T06:19:50;21;18;
46885;PMS5003;32622;48.202;11.326;2023-09-07T06:21:53;21;18;
46885;PMS5003;32622;48.202;11.326;2023-09-07T06:23:55;21;17;
46885;PMS5003;32622;48.202;11.326;2023-09-07T06:25:57;21;17;
46885;PMS5003;32622;48.202;11.326;2023-09-07T06:27:59;21;17;
46885;PMS5003;32622;48.202;11.326;2023-09-07T06:30:01;19;17;
46885;PMS5003;32622;48.202;11.326;2023-09-07T06:32:04;19;17;
46885;PMS5003;32622;48.202;11.326;2023-09-07T06:34:06;19;17;
46885;PMS5003;32622;48.202;11.326;2023-09-07T06:36:08;17;16;
46885;PMS5003;32622;48.202;11.326;2023-09-07T06:38:10;17;16;
46885;PMS5003;32622;48.202;11.326;2023-09-07T06:40:13;17;16;
46885;PMS5003;32622;48.202;11.326;2023-09-07T06:42:15;18;16;
46885;PMS5003;32622;48.202;11.326;2023-09-07T06:44:17;18;16;
46885;PMS5003;32622;48.202;11.326;2023-09-07T06:46:19;18;16;
46885;PMS5003;32622;48.202;11.326;2023-09-07T06:48:21;18;16;
46885;PMS5003;32622;48.202;11.326;2023-09-07T06:50:23;18;16;
46885;PMS5003;32622;48.202;11.326;2023-09-07T06:52:25;18;16;
46885;PMS5003;32622;48.202;11.326;2023-09-07T06:54:28;18;16;
46885;PMS5003;32622;48.202;11.326;2023-09-07T06:56:31;18;16;
46885;PMS5003;32622;48.202;11.326;2023-09-07T06:58:33;18;16;
46885;PMS5003;32622;48.202;11.326;2023-09-07T07:00:35;18;16;
46885;PMS5003;32622;48.202;11.326;2023-09-07T07:02:37;18;16;
46885;PMS5003;32622;48.202;11.326;2023-09-07T07:04:40;18;16;
46885;PMS5003;32622;48.202;11.326;2023-09-07T07:06:42;17;16;
46885;PMS5003;32622;48.202;11.326;2023-09-07T07:08:44;17;16;
46885;PMS5003;32622;48.202;11.326;2023-09-07T07:10:46;17;16;
46885;PMS5003;32622;48.202;11.326;2023-09-07T07:12:48;17;16;
46885;PMS5003;32622;48.202;11.326;2023-09-07T07:14:50;17;16;
46885;PMS5003;32622;48.202;11.326;2023-09-07T07:16:52;17;16;
46885;PMS5003;32622;48.202;11.326;2023-09-07T07:18:54;17;16;
46885;PMS5003;32622;48.202;11.326;2023-09-07T07:20:56;17;16;
46885;PMS5003;32622;48.202;11.326;2023-09-07T07:22:59;17;16;
46885;PMS5003;32622;48.202;11.326;2023-09-07T07:25:01;17;16;
46885;PMS5003;32622;48.202;11.326;2023-09-07T07:27:03;17;16;
46885;PMS5003;32622;48.202;11.326;2023-09-07T07:29:05;17;16;
46885;PMS5003;32622;48.202;11.326;2023-09-07T07:31:07;17;16;
46885;PMS5003;32622;48.202;11.326;2023-09-07T07:33:10;17;16;
46885;PMS5003;32622;48.202;11.326;2023-09-07T07:35:12;17;16;
46885;PMS5003;32622;48.202;11.326;2023-09-07T07:37:15;17;16;
46885;PMS5003;32622;48.202;11.326;2023-09-07T07:39:17;17;16;
46885;PMS5003;32622;48.202;11.326;2023-09-07T07:41:19;17;16;
46885;PMS5003;32622;48.202;11.326;2023-09-07T07:43:21;16;16;
46885;PMS5003;32622;48.202;11.326;2023-09-07T07:45:23;16;16;
46885;PMS5003;32622;48.202;11.326;2023-09-07T07:47:25;16;16;
46885;PMS5003;32622;48.202;11.326;2023-09-07T07:49:27;18;18;
46885;PMS5003;32622;48.202;11.326;2023-09-07T07:51:29;18;18;
46885;PMS5003;32622;48.202;11.326;2023-09-07T07:53:32;18;18;
46885;PMS5003;32622;48.202;11.326;2023-09-07T07:55:34;20;19;
46885;PMS5003;32622;48.202;11.326;2023-09-07T07:57:36;20;19;
46885;PMS5003;32622;48.202;11.326;2023-09-07T07:59:38;20;19;
46885;PMS5003;32622;48.202;11.326;2023-09-07T08:01:40;20;19;
46885;PMS5003;32622;48.202;11.326;2023-09-07T08:03:43;20;19;
46885;PMS5003;32622;48.202;11.326;2023-09-07T08:05:45;20;19;
46885;PMS5003;32622;48.202;11.326;2023-09-07T08:07:48;20;19;
46885;PMS5003;32622;48.202;11.326;2023-09-07T08:09:50;20;19;
46885;PMS5003;32622;48.202;11.326;2023-09-07T08:11:53;20;19;
46885;PMS5003;32622;48.202;11.326;2023-09-07T08:13:55;20;19;
46885;PMS5003;32622;48.202;11.326;2023-09-07T08:15:58;20;19;
46885;PMS5003;32622;48.202;11.326;2023-09-07T08:18:00;20;19;
46885;PMS5003;32622;48.202;11.326;2023-09-07T08:20:02;21;18;
46885;PMS5003;32622;48.202;11.326;2023-09-07T08:22:04;21;18;
46885;PMS5003;32622;48.202;11.326;2023-09-07T08:24:07;21;18;
46885;PMS5003;32622;48.202;11.326;2023-09-07T08:26:09;21;19;
46885;PMS5003;32622;48.202;11.326;2023-09-07T08:28:11;21;19;
46885;PMS5003;32622;48.202;11.326;2023-09-07T08:30:14;21;19;
46885;PMS5003;32622;48.202;11.326;2023-09-07T08:32:18;21;18;
46885;PMS5003;32622;48.202;11.326;2023-09-07T08:34:20;21;18;
46885;PMS5003;32622;48.202;11.326;2023-09-07T08:36:22;21;18;
46885;PMS5003;32622;48.202;11.326;2023-09-07T08:38:24;21;18;
46885;PMS5003;32622;48.202;11.326;2023-09-07T08:40:27;21;18;
46885;PMS5003;32622;48.202;11.326;2023-09-07T08:42:29;21;18;
46885;PMS5003;32622;48.202;11.326;2023-09-07T08:44:32;20;18;
46885;PMS5003;32622;48.202;11.326;2023-09-07T08:46:35;20;18;
46885;PMS5003;32622;48.202;11.326;2023-09-07T08:48:39;20;18;
46885;PMS5003;32622;48.202;11.326;2023-09-07T08:50:44;19;16;
46885;PMS5003;32622;48.202;11.326;2023-09-07T08:52:47;19;16;
46885;PMS5003;32622;48.202;11.326;2023-09-07T08:54:54;19;16;
46885;PMS5003;32622;48.202;11.326;2023-09-07T08:56:57;17;15;
46885;PMS5003;32622;48.202;11.326;2023-09-07T08:59:04;17;15;
46885;PMS5003;32622;48.202;11.326;2023-09-07T09:01:06;17;15;
46885;PMS5003;32622;48.202;11.326;2023-09-07T09:03:08;17;16;
46885;PMS5003;32622;48.202;11.326;2023-09-07T09:05:10;17;16;
46885;PMS5003;32622;48.202;11.326;2023-09-07T09:07:15;17;16;
46885;PMS5003;32622;48.202;11.326;2023-09-07T09:09:21;18;16;
46885;PMS5003;32622;48.202;11.326;2023-09-07T09:11:25;18;16;
46885;PMS5003;32622;48.202;11.326;2023-09-07T09:13:28;18;16;
46885;PMS5003;32622;48.202;11.326;2023-09-07T09:15:31;20;17;
46885;PMS5003;32622;48.202;11.326;2023-09-07T09:17:33;20;17;
46885;PMS5003;32622;48.202;11.326;2023-09-07T09:19:35;20;17;
46885;PMS5003;32622;48.202;11.326;2023-09-07T09:21:37;18;17;
46885;PMS5003;32622;48.202;11.326;2023-09-07T09:23:39;18;17;
46885;PMS5003;32622;48.202;11.326;2023-09-07T09:25:42;18;17;
46885;PMS5003;32622;48.202;11.326;2023-09-07T09:27:44;18;17;
46885;PMS5003;32622;48.202;11.326;2023-09-07T09:29:49;18;17;
46885;PMS5003;32622;48.202;11.326;2023-09-07T09:31:51;18;17;
46885;PMS5003;32622;48.202;11.326;2023-09-07T09:33:54;18;17;
46885;PMS5003;32622;48.202;11.326;2023-09-07T09:35:57;18;17;
46885;PMS5003;32622;48.202;11.326;2023-09-07T09:38:00;18;17;
46885;PMS5003;32622;48.202;11.326;2023-09-07T09:40:03;19;17;
46885;PMS5003;32622;48.202;11.326;2023-09-07T09:42:06;19;17;
46885;PMS5003;32622;48.202;11.326;2023-09-07T09:44:09;19;17;
46885;PMS5003;32622;48.202;11.326;2023-09-07T09:46:12;19;18;
46885;PMS5003;32622;48.202;11.326;2023-09-07T09:48:14;19;18;
46885;PMS5003;32622;48.202;11.326;2023-09-07T09:50:18;19;18;
46885;PMS5003;32622;48.202;11.326;2023-09-07T09:52:20;19;18;
46885;PMS5003;32622;48.202;11.326;2023-09-07T09:54:25;19;18;
46885;PMS5003;32622;48.202;11.326;2023-09-07T09:56:29;19;18;
46885;PMS5003;32622;48.202;11.326;2023-09-07T09:58:31;20;18;
46885;PMS5003;32622;48.202;11.326;2023-09-07T10:00:33;20;18;
46885;PMS5003;32622;48.202;11.326;2023-09-07T10:02:37;20;18;
46885;PMS5003;32622;48.202;11.326;2023-09-07T10:04:40;20;18;
46885;PMS5003;32622;48.202;11.326;2023-09-07T10:06:50;20;18;
46885;PMS5003;32622;48.202;11.326;2023-09-07T10:08:57;20;18;
46885;PMS5003;32622;48.202;11.326;2023-09-07T10:11:01;20;18;
46885;PMS5003;32622;48.202;11.326;2023-09-07T10:13:13;20;18;
46885;PMS5003;32622;48.202;11.326;2023-09-07T10:15:20;20;18;
46885;PMS5003;32622;48.202;11.326;2023-09-07T10:17:23;18;17;
46885;PMS5003;32622;48.202;11.326;2023-09-07T10:19:25;18;17;
46885;PMS5003;32622;48.202;11.326;2023-09-07T10:21:27;18;17;
46885;PMS5003;32622;48.202;11.326;2023-09-07T10:23:38;18;17;
46885;PMS5003;32622;48.202;11.326;2023-09-07T10:25:41;17;16;
46885;PMS5003;32622;48.202;11.326;2023-09-07T10:27:43;17;16;
46885;PMS5003;32622;48.202;11.326;2023-09-07T10:29:46;18;17;
46885;PMS5003;32622;48.202;11.326;2023-09-07T10:31:52;19;18;
46885;PMS5003;32622;48.202;11.326;2023-09-07T10:33:54;19;18;
46885;PMS5003;32622;48.202;11.326;2023-09-07T10:35:57;19;17;
46885;PMS5003;32622;48.202;11.326;2023-09-07T10:37:59;19;17;
46885;PMS5003;32622;48.202;11.326;2023-09-07T10:40:03;19;17;
46885;PMS5003;32622;48.202;11.326;2023-09-07T10:42:06;18;17;
46885;PMS5003;32622;48.202;11.326;2023-09-07T10:44:08;18;17;
46885;PMS5003;32622;48.202;11.326;2023-09-07T10:46:10;17;16;
46885;PMS5003;32622;48.202;11.326;2023-09-07T10:48:13;17;16;
46885;PMS5003;32622;48.202;11.326;2023-09-07T10:50:15;17;16;
46885;PMS5003;32622;48.202;11.326;2023-09-07T10:52:17;17;16;
46885;PMS5003;32622;48.202;11.326;2023-09-07T10:54:22;17;16;
46885;PMS5003;32622;48.202;11.326;2023-09-07T10:56:25;17;16;
46885;PMS5003;32622;48.202;11.326;2023-09-07T10:58:27;17;16;
46885;PMS5003;32622;48.202;11.326;2023-09-07T11:00:31;17;17;
46885;PMS5003;32622;48.202;11.326;2023-09-07T11:02:35;17;17;
46885;PMS5003;32622;48.202;11.326;2023-09-07T11:04:37;17;17;
46885;PMS5003;32622;48.202;11.326;2023-09-07T11:06:39;16;16;
46885;PMS5003;32622;48.202;11.326;2023-09-07T11:08:43;16;16;
46885;PMS5003;32622;48.202;11.326;2023-09-07T11:10:45;16;16;
46885;PMS5003;32622;48.202;11.326;2023-09-07T11:12:47;15;15;
46885;PMS5003;32622;48.202;11.326;2023-09-07T11:14:49;15;15;
46885;PMS5003;32622;48.202;11.326;2023-09-07T11:16:55;15;15;
46885;PMS5003;32622;48.202;11.326;2023-09-07T11:18:57;16;16;
46885;PMS5003;32622;48.202;11.326;2023-09-07T11:21:04;16;16;
46885;PMS5003;32622;48.202;11.326;2023-09-07T11:23:06;16;16;
46885;PMS5003;32622;48.202;11.326;2023-09-07T11:25:08;17;17;
46885;PMS5003;32622;48.202;11.326;2023-09-07T11:27:10;17;17;
46885;PMS5003;32622;48.202;11.326;2023-09-07T11:29:13;17;17;
46885;PMS5003;32622;48.202;11.326;2023-09-07T11:31:18;16;16;
46885;PMS5003;32622;48.202;11.326;2023-09-07T11:33:21;16;16;
46885;PMS5003;32622;48.202;11.326;2023-09-07T11:35:24;17;17;
46885;PMS5003;32622;48.202;11.326;2023-09-07T11:37:26;17;17;
46885;PMS5003;32622;48.202;11.326;2023-09-07T11:39:28;17;17;
46885;PMS5003;32622;48.202;11.326;2023-09-07T11:41:30;17;17;
46885;PMS5003;32622;48.202;11.326;2023-09-07T11:43:32;17;17;
46885;PMS5003;32622;48.202;11.326;2023-09-07T11:45:34;17;17;
46885;PMS5003;32622;48.202;11.326;2023-09-07T11:47:36;17;17;
46885;PMS5003;32622;48.202;11.326;2023-09-07T11:49:38;18;18;
46885;PMS5003;32622;48.202;11.326;2023-09-07T11:51:41;18;18;
46885;PMS5003;32622;48.202;11.326;2023-09-07T11:53:43;18;18;
46885;PMS5003;32622;48.202;11.326;2023-09-07T11:55:45;18;18;
46885;PMS5003;32622;48.202;11.326;2023-09-07T11:57:47;18;18;
46885;PMS5003;32622;48.202;11.326;2023-09-07T11:59:49;18;18;
46885;PMS5003;32622;48.202;11.326;2023-09-07T12:01:52;18;18;
46885;PMS5003;32622;48.202;11.326;2023-09-07T12:03:54;18;18;
46885;PMS5003;32622;48.202;11.326;2023-09-07T12:05:56;18;18;
46885;PMS5003;32622;48.202;11.326;2023-09-07T12:07:58;19;19;
46885;PMS5003;32622;48.202;11.326;2023-09-07T12:10:00;19;19;
46885;PMS5003;32622;48.202;11.326;2023-09-07T12:12:03;19;19;
46885;PMS5003;32622;48.202;11.326;2023-09-07T12:14:05;19;19;
46885;PMS5003;32622;48.202;11.326;2023-09-07T12:16:07;19;19;
46885;PMS5003;32622;48.202;11.326;2023-09-07T12:18:09;19;19;
46885;PMS5003;32622;48.202;11.326;2023-09-07T12:20:12;19;19;
46885;PMS5003;32622;48.202;11.326;2023-09-07T12:22:14;19;19;
46885;PMS5003;32622;48.202;11.326;2023-09-07T12:24:16;19;19;
46885;PMS5003;32622;48.202;11.326;2023-09-07T12:26:18;19;19;
46885;PMS5003;32622;48.202;11.326;2023-09-07T12:28:20;19;19;
46885;PMS5003;32622;48.202;11.326;2023-09-07T12:30:22;19;19;
46885;PMS5003;32622;48.202;11.326;2023-09-07T12:32:24;21;20;
46885;PMS5003;32622;48.202;11.326;2023-09-07T12:34:26;21;20;
46885;PMS5003;32622;48.202;11.326;2023-09-07T12:36:29;21;20;
46885;PMS5003;32622;48.202;11.326;2023-09-07T12:38:31;20;18;
46885;PMS5003;32622;48.202;11.326;2023-09-07T12:40:33;20;18;
46885;PMS5003;32622;48.202;11.326;2023-09-07T12:42:35;20;18;
46885;PMS5003;32622;48.202;11.326;2023-09-07T12:44:37;20;18;
46885;PMS5003;32622;48.202;11.326;2023-09-07T12:46:39;20;18;
46885;PMS5003;32622;48.202;11.326;2023-09-07T12:48:41;20;18;
46885;PMS5003;32622;48.202;11.326;2023-09-07T12:50:44;20;18;
46885;PMS5003;32622;48.202;11.326;2023-09-07T12:52:46;20;18;
46885;PMS5003;32622;48.202;11.326;2023-09-07T12:54:48;20;18;
46885;PMS5003;32622;48.202;11.326;2023-09-07T12:56:50;20;18;
46885;PMS5003;32622;48.202;11.326;2023-09-07T12:58:52;20;18;
46885;PMS5003;32622;48.202;11.326;2023-09-07T13:00:54;20;18;
46885;PMS5003;32622;48.202;11.326;2023-09-07T13:02:57;20;17;
46885;PMS5003;32622;48.202;11.326;2023-09-07T13:04:59;20;17;
46885;PMS5003;32622;48.202;11.326;2023-09-07T13:07:01;20;17;
46885;PMS5003;32622;48.202;11.326;2023-09-07T13:09:03;19;17;
46885;PMS5003;32622;48.202;11.326;2023-09-07T13:11:05;19;17;
46885;PMS5003;32622;48.202;11.326;2023-09-07T13:13:07;19;17;
46885;PMS5003;32622;48.202;11.326;2023-09-07T13:15:10;19;17;
46885;PMS5003;32622;48.202;11.326;2023-09-07T13:17:13;19;17;
46885;PMS5003;32622;48.202;11.326;2023-09-07T13:19:15;19;17;